createdAt,value
2022-08-26T00:00:24.247Z,18.24
2022-08-26T00:05:28.366Z,18.25
2022-08-26T00:10:34.427Z,18.34
2022-08-26T00:15:39.180Z,18.33
2022-08-26T00:20:43.189Z,18.31
2022-08-26T00:25:48.639Z,18.40
2022-08-26T00:30:53.485Z,18.37
2022-08-26T00:35:57.810Z,18.35
2022-08-26T00:41:05.419Z,18.33
2022-08-26T00:46:12.465Z,18.30
2022-08-26T00:51:19.861Z,18.30
2022-08-26T00:56:30.141Z,18.32
2022-08-26T01:01:34.090Z,18.26
2022-08-26T01:06:37.705Z,18.24
2022-08-26T01:11:43.225Z,18.19
2022-08-26T01:16:48.011Z,18.02
2022-08-26T01:21:59.198Z,18.06
2022-08-26T01:27:08.976Z,18.01
2022-08-26T01:32:18.105Z,18.00
2022-08-26T01:37:25.424Z,17.92
2022-08-26T01:42:30.901Z,17.89
2022-08-26T01:47:37.951Z,17.87
2022-08-26T01:52:44.570Z,17.87
2022-08-26T01:57:57.460Z,17.84
2022-08-26T02:03:18.027Z,17.82
2022-08-26T02:08:27.248Z,17.80
2022-08-26T02:13:34.282Z,17.81
2022-08-26T02:18:40.112Z,17.80
2022-08-26T02:23:43.829Z,17.83
2022-08-26T02:28:54.812Z,17.92
2022-08-26T02:34:10.748Z,17.93
2022-08-26T02:39:19.561Z,17.91
2022-08-26T02:44:28.269Z,18.06
2022-08-26T02:49:32.194Z,18.17
2022-08-26T02:54:36.133Z,18.28
2022-08-26T02:59:41.245Z,18.44
2022-08-26T03:04:57.339Z,18.57
2022-08-26T03:10:08.481Z,18.79
2022-08-26T03:15:17.889Z,18.99
2022-08-26T03:20:23.256Z,19.06
2022-08-26T03:25:28.248Z,19.30
2022-08-26T03:30:44.818Z,19.63
2022-08-26T03:35:50.714Z,19.76
2022-08-26T03:40:55.656Z,20.03
2022-08-26T03:46:00.561Z,20.34
2022-08-26T03:51:08.329Z,20.64
2022-08-26T03:56:16.189Z,21.07
2022-08-26T04:01:21.105Z,21.64
2022-08-26T04:06:25.132Z,22.03
2022-08-26T04:11:34.128Z,25.05
2022-08-26T04:16:40.256Z,27.07
2022-08-26T04:21:45.152Z,29.26
2022-08-26T04:26:49.590Z,27.96
2022-08-26T04:31:56.135Z,27.47
2022-08-26T04:37:00.110Z,25.94
2022-08-26T04:42:03.574Z,25.72
2022-08-26T04:47:08.460Z,25.56
2022-08-26T04:52:13.438Z,26.33
2022-08-26T04:57:16.970Z,28.94
2022-08-26T05:02:22.496Z,33.53
2022-08-26T05:07:27.913Z,35.31
2022-08-26T05:12:32.381Z,37.47
2022-08-26T05:17:38.231Z,39.29
2022-08-26T05:22:42.890Z,39.33
2022-08-26T05:27:46.793Z,39.92
2022-08-26T05:32:55.334Z,40.88
2022-08-26T05:38:00.657Z,41.63
2022-08-26T05:43:08.197Z,41.89
2022-08-26T05:48:15.524Z,42.45
2022-08-26T05:53:22.133Z,43.00
2022-08-26T05:58:28.838Z,43.39
2022-08-26T06:03:35.840Z,44.10
2022-08-26T06:08:40.072Z,43.37
2022-08-26T06:13:44.867Z,45.08
2022-08-26T06:18:51.428Z,45.45
2022-08-26T06:24:14.504Z,46.08
2022-08-26T06:29:24.184Z,47.28
2022-08-26T06:34:32.873Z,48.88
2022-08-26T06:39:41.188Z,50.30
2022-08-26T06:44:45.389Z,49.80
2022-08-26T06:49:51.110Z,50.15
2022-08-26T06:54:57.938Z,50.17
2022-08-26T07:00:04.005Z,51.05
2022-08-26T07:05:10.356Z,50.79
2022-08-26T07:10:14.008Z,52.66
2022-08-26T07:15:17.726Z,53.03
2022-08-26T07:20:29.140Z,53.86
2022-08-26T07:25:32.718Z,52.99
2022-08-26T07:30:40.969Z,53.17
2022-08-26T07:35:47.755Z,54.19
2022-08-26T07:40:51.416Z,53.70
2022-08-26T07:45:57.735Z,52.76
2022-08-26T07:51:04.891Z,52.98
2022-08-26T07:56:10.674Z,51.86
2022-08-26T08:01:15.212Z,51.72
2022-08-26T08:06:21.730Z,51.39
2022-08-26T08:11:27.322Z,50.94
2022-08-26T08:16:32.219Z,50.84
2022-08-26T08:21:38.295Z,48.83
2022-08-26T08:26:41.987Z,47.98
2022-08-26T08:31:56.467Z,47.21
2022-08-26T08:37:05.247Z,45.75
2022-08-26T08:42:37.972Z,42.96
2022-08-26T08:47:44.170Z,41.86
2022-08-26T08:52:56.250Z,40.18
2022-08-26T08:58:04.927Z,39.14
2022-08-26T09:03:19.510Z,38.84
2022-08-26T09:08:29.546Z,37.38
2022-08-26T09:13:33.021Z,37.00
2022-08-26T09:18:49.717Z,37.12
2022-08-26T09:23:56.961Z,36.96
2022-08-26T09:29:02.595Z,35.68
2022-08-26T09:34:17.466Z,34.80
2022-08-26T09:39:37.720Z,34.40
2022-08-26T09:44:57.041Z,34.49
2022-08-26T09:50:09.602Z,33.81
2022-08-26T09:55:17.292Z,33.44
2022-08-26T10:00:31.273Z,33.71
2022-08-26T10:05:44.398Z,34.04
2022-08-26T10:10:53.110Z,33.42
2022-08-26T10:16:02.921Z,33.62
2022-08-26T10:21:13.691Z,33.43
2022-08-26T10:26:24.149Z,33.46
2022-08-26T10:31:30.923Z,33.83
2022-08-26T10:37:14.990Z,34.29
2022-08-26T10:42:24.799Z,33.99
2022-08-26T10:47:36.207Z,33.97
2022-08-26T10:52:53.536Z,33.69
2022-08-26T10:58:09.175Z,34.02
2022-08-26T11:03:32.108Z,34.20
2022-08-26T11:08:35.604Z,34.44
2022-08-26T11:14:02.222Z,34.21
2022-08-26T11:19:06.881Z,34.05
2022-08-26T11:24:11.308Z,33.82
2022-08-26T11:29:55.129Z,33.70
2022-08-26T11:35:01.829Z,33.32
2022-08-26T11:40:10.992Z,33.29
2022-08-26T11:45:20.406Z,33.15
2022-08-26T11:50:27.099Z,33.04
2022-08-26T11:55:33.372Z,32.80
2022-08-26T12:00:51.889Z,32.70
2022-08-26T12:05:57.370Z,32.60
2022-08-26T12:11:06.507Z,32.49
2022-08-26T12:16:11.619Z,32.35
2022-08-26T12:21:22.204Z,32.16
2022-08-26T12:26:30.048Z,32.17
2022-08-26T12:31:37.189Z,32.12
2022-08-26T12:36:47.024Z,31.92
2022-08-26T12:41:53.355Z,31.82
2022-08-26T12:47:05.600Z,31.77
2022-08-26T12:52:30.046Z,32.01
2022-08-26T12:57:36.400Z,32.08
2022-08-26T13:02:42.288Z,32.20
2022-08-26T13:07:45.941Z,32.60
2022-08-26T13:12:49.383Z,32.79
2022-08-26T13:17:54.146Z,32.80
2022-08-26T13:23:03.254Z,32.55
2022-08-26T13:28:06.778Z,32.55
2022-08-26T13:33:12.646Z,32.37
2022-08-26T13:38:32.857Z,32.20
2022-08-26T13:43:37.327Z,32.29
2022-08-26T13:48:42.243Z,32.16
2022-08-26T13:53:48.529Z,31.97
2022-08-26T13:58:51.958Z,31.77
2022-08-26T14:03:56.999Z,31.84
2022-08-26T14:09:00.796Z,31.80
2022-08-26T14:14:04.716Z,31.62
2022-08-26T14:19:10.998Z,31.64
2022-08-26T14:24:14.556Z,31.54
2022-08-26T14:29:19.364Z,31.49
2022-08-26T14:34:25.409Z,31.42
2022-08-26T14:39:28.905Z,31.23
2022-08-26T14:44:34.547Z,31.27
2022-08-26T14:49:39.607Z,31.07
2022-08-26T14:54:43.114Z,30.93
2022-08-26T14:59:50.410Z,30.79
2022-08-26T15:04:55.633Z,30.69
2022-08-26T15:09:59.729Z,30.67
2022-08-26T15:15:03.623Z,30.63
2022-08-26T15:20:11.133Z,30.97
2022-08-26T15:25:15.185Z,30.73
2022-08-26T15:30:19.758Z,30.56
2022-08-26T15:35:25.365Z,30.40
2022-08-26T15:40:29.023Z,30.21
2022-08-26T15:45:34.947Z,30.07
2022-08-26T15:50:50.455Z,29.78
2022-08-26T15:55:56.315Z,29.59
2022-08-26T16:01:00.133Z,29.46
2022-08-26T16:06:06.219Z,29.29
2022-08-26T16:11:10.504Z,28.91
2022-08-26T16:16:14.772Z,28.54
2022-08-26T16:21:22.085Z,28.35
2022-08-26T16:26:28.952Z,28.06
2022-08-26T16:31:32.595Z,27.85
2022-08-26T16:36:39.382Z,27.60
2022-08-26T16:41:43.548Z,27.40
2022-08-26T16:46:47.055Z,27.13
2022-08-26T16:51:51.861Z,26.86
2022-08-26T16:56:55.711Z,26.53
2022-08-26T17:01:59.938Z,26.21
2022-08-26T17:07:05.203Z,26.04
2022-08-26T17:12:09.322Z,25.79
2022-08-26T17:17:13.017Z,25.58
2022-08-26T17:22:18.357Z,25.34
2022-08-26T17:27:22.175Z,25.18
2022-08-26T17:32:26.527Z,24.98
2022-08-26T17:37:31.542Z,24.86
2022-08-26T17:42:35.537Z,24.65
2022-08-26T17:47:39.886Z,24.48
2022-08-26T17:52:45.878Z,24.36
2022-08-26T17:57:53.382Z,24.19
2022-08-26T18:02:57.639Z,24.05
2022-08-26T18:08:03.312Z,23.94
2022-08-26T18:13:06.878Z,23.80
2022-08-26T18:18:11.087Z,23.71
2022-08-26T18:23:16.144Z,23.61
2022-08-26T18:28:21.160Z,23.50
2022-08-26T18:33:25.075Z,23.37
2022-08-26T18:38:29.927Z,23.28
2022-08-26T18:43:34.395Z,23.21
2022-08-26T18:48:39.764Z,23.17
2022-08-26T18:53:44.761Z,23.05
2022-08-26T18:58:49.212Z,22.88
2022-08-26T19:03:52.870Z,22.55
2022-08-26T19:08:57.999Z,22.33
2022-08-26T19:14:02.293Z,22.25
2022-08-26T19:19:06.237Z,22.22
2022-08-26T19:24:17.695Z,22.15
2022-08-26T19:29:23.535Z,22.02
2022-08-26T19:34:28.048Z,21.88
2022-08-26T19:39:32.932Z,21.84
2022-08-26T19:44:54.065Z,21.71
2022-08-26T19:49:58.364Z,21.59
2022-08-26T19:55:03.513Z,21.55
2022-08-26T20:00:11.108Z,21.38
2022-08-26T20:05:16.519Z,21.35
2022-08-26T20:10:24.360Z,21.31
2022-08-26T20:15:28.548Z,21.20
2022-08-26T20:20:51.174Z,21.09
2022-08-26T20:25:57.507Z,20.88
2022-08-26T20:31:01.878Z,20.83
2022-08-26T20:36:07.239Z,20.78
2022-08-26T20:41:12.527Z,20.72
2022-08-26T20:46:19.555Z,20.62
2022-08-26T20:51:25.427Z,20.53
2022-08-26T20:56:30.416Z,20.49
2022-08-26T21:01:37.154Z,20.42
2022-08-26T21:06:52.112Z,20.29
2022-08-26T21:11:57.449Z,20.17
2022-08-26T21:17:01.290Z,20.09
2022-08-26T21:22:05.590Z,19.98
2022-08-26T21:27:10.522Z,19.95
2022-08-26T21:32:15.810Z,19.91
2022-08-26T21:37:19.408Z,19.82
2022-08-26T21:42:26.661Z,19.74
2022-08-26T21:47:32.689Z,19.55
2022-08-26T21:52:36.260Z,19.35
2022-08-26T21:57:41.156Z,19.35
2022-08-26T22:02:45.075Z,19.23
2022-08-26T22:07:48.571Z,19.19
2022-08-26T22:12:53.510Z,19.19
2022-08-26T22:17:57.122Z,19.13
2022-08-26T22:23:01.221Z,19.08
2022-08-26T22:28:07.894Z,19.10
2022-08-26T22:33:11.990Z,18.95
2022-08-26T22:38:16.546Z,18.86
2022-08-26T22:43:21.530Z,18.89
2022-08-26T22:48:27.117Z,18.79
2022-08-26T22:53:30.723Z,18.76
2022-08-26T22:58:41.536Z,18.78
2022-08-26T23:03:45.356Z,18.71
2022-08-26T23:08:49.510Z,18.71
2022-08-26T23:13:54.786Z,18.73
2022-08-26T23:18:58.446Z,18.23
2022-08-26T23:24:02.471Z,18.21
2022-08-26T23:29:09.114Z,18.14
2022-08-26T23:34:30.495Z,18.15
2022-08-26T23:39:35.390Z,18.26
2022-08-26T23:44:40.796Z,18.31
2022-08-26T23:49:44.317Z,18.30
2022-08-26T23:54:48.748Z,18.28
2022-08-26T23:59:53.945Z,18.29
